Caldwell, Ohio
Current Conditions -  °F | °C
As of 6:53 AM on Friday 21 Nov 2014 (Local Time) from KZZV Reporting Station
Clear Clear  
Wind Chill: 16°   Ceiling: Unl
Heat Index: 16°   Visibility: 10mi
Dew Point:   Wind: 0mph
Humidity: 71%   Direction: NA
Pressure: 30.39"   Gusts: NA
Location:  39.75°N, 81.52°W
Report Text: KZZV 211153Z AUTO 00000KT 10SM CLR M09/M13 A3039 RMK AO2 SLP305 T10891133 11061 21089 51033
Loading
Personal Weather Stations






























Interactive Weather Map New forecast layout! Learn more

10-Day Weather Forecast

Advertisements
Track Severe Weather on mobile